Terminal Aerodrome Forecast
Issued by NWS Shreveport, LA

Home | Current Version | Previous Version | Text Only | Print | Product List | Glossary On
Versions: 1 2 3 4 5 6 7 8 9 10 11 12 13 14 15
587
FTUS44 KSHV 250528
TAFELD
TAF
KELD 250528Z 2506/2606 00000KT P6SM SKC
     FM250900 00000KT P6SM SCT110
     FM251100 00000KT 5SM BR SCT110
     FM251400 VRB03KT P6SM SCT110
     FM251600 15005KT P6SM BKN070
     FM252000 14005KT P6SM VCSH BKN060=

USA.gov is the U.S. government's official web portal to all federal, state and local government web resources and services.